sensor_id;sensor_type;location;lat;lon;timestamp;P1;durP1;ratioP1;P2;durP2;ratioP2
25913;SDS011;13718;50.922;5.346;2022-11-21T00:00:44;23.02;;;4.53;;
25913;SDS011;13718;50.922;5.346;2022-11-21T00:03:11;23.52;;;4.80;;
25913;SDS011;13718;50.922;5.346;2022-11-21T00:05:37;20.95;;;3.95;;
25913;SDS011;13718;50.922;5.346;2022-11-21T00:08:08;29.38;;;4.50;;
25913;SDS011;13718;50.922;5.346;2022-11-21T00:10:34;27.33;;;5.47;;
25913;SDS011;13718;50.922;5.346;2022-11-21T00:13:01;25.85;;;4.43;;
25913;SDS011;13718;50.922;5.346;2022-11-21T00:15:27;27.90;;;4.60;;
25913;SDS011;13718;50.922;5.346;2022-11-21T00:17:52;25.35;;;4.47;;
25913;SDS011;13718;50.922;5.346;2022-11-21T00:20:18;22.83;;;4.53;;
25913;SDS011;13718;50.922;5.346;2022-11-21T00:22:45;25.73;;;4.30;;
25913;SDS011;13718;50.922;5.346;2022-11-21T00:25:11;26.27;;;4.47;;
25913;SDS011;13718;50.922;5.346;2022-11-21T00:27:37;31.98;;;4.20;;
25913;SDS011;13718;50.922;5.346;2022-11-21T00:30:03;21.60;;;4.75;;
25913;SDS011;13718;50.922;5.346;2022-11-21T00:32:30;22.20;;;3.88;;
25913;SDS011;13718;50.922;5.346;2022-11-21T00:34:56;24.42;;;4.55;;
25913;SDS011;13718;50.922;5.346;2022-11-21T00:37:21;34.50;;;5.30;;
25913;SDS011;13718;50.922;5.346;2022-11-21T00:39:47;20.95;;;4.00;;
25913;SDS011;13718;50.922;5.346;2022-11-21T00:42:12;25.13;;;4.03;;
25913;SDS011;13718;50.922;5.346;2022-11-21T00:44:38;27.90;;;5.32;;
25913;SDS011;13718;50.922;5.346;2022-11-21T00:47:03;24.90;;;5.07;;
25913;SDS011;13718;50.922;5.346;2022-11-21T00:49:29;17.45;;;4.05;;
25913;SDS011;13718;50.922;5.346;2022-11-21T00:51:54;24.42;;;4.15;;
25913;SDS011;13718;50.922;5.346;2022-11-21T00:54:20;27.48;;;4.43;;
25913;SDS011;13718;50.922;5.346;2022-11-21T00:56:46;23.00;;;4.00;;
25913;SDS011;13718;50.922;5.346;2022-11-21T00:59:11;37.17;;;4.65;;
25913;SDS011;13718;50.922;5.346;2022-11-21T01:01:37;26.13;;;4.43;;
25913;SDS011;13718;50.922;5.346;2022-11-21T01:04:02;22.85;;;3.95;;
25913;SDS011;13718;50.922;5.346;2022-11-21T01:06:28;18.17;;;4.65;;
25913;SDS011;13718;50.922;5.346;2022-11-21T01:08:54;24.80;;;4.22;;
25913;SDS011;13718;50.922;5.346;2022-11-21T01:11:19;14.60;;;3.95;;
25913;SDS011;13718;50.922;5.346;2022-11-21T01:13:47;23.05;;;4.32;;
25913;SDS011;13718;50.922;5.346;2022-11-21T01:16:14;24.17;;;4.07;;
25913;SDS011;13718;50.922;5.346;2022-11-21T01:18:41;22.65;;;3.78;;
25913;SDS011;13718;50.922;5.346;2022-11-21T01:21:11;22.40;;;3.70;;
25913;SDS011;13718;50.922;5.346;2022-11-21T01:23:38;15.27;;;3.53;;
25913;SDS011;13718;50.922;5.346;2022-11-21T01:26:05;25.13;;;3.92;;
25913;SDS011;13718;50.922;5.346;2022-11-21T01:28:33;18.50;;;3.63;;
25913;SDS011;13718;50.922;5.346;2022-11-21T01:31:05;16.08;;;3.65;;
25913;SDS011;13718;50.922;5.346;2022-11-21T01:33:33;26.45;;;4.18;;
25913;SDS011;13718;50.922;5.346;2022-11-21T01:36:32;22.08;;;4.25;;
25913;SDS011;13718;50.922;5.346;2022-11-21T01:38:55;23.00;;;3.67;;
25913;SDS011;13718;50.922;5.346;2022-11-21T01:41:27;14.48;;;3.65;;
25913;SDS011;13718;50.922;5.346;2022-11-21T01:43:55;16.27;;;3.00;;
25913;SDS011;13718;50.922;5.346;2022-11-21T01:46:22;15.45;;;3.28;;
25913;SDS011;13718;50.922;5.346;2022-11-21T01:49:07;16.63;;;3.45;;
25913;SDS011;13718;50.922;5.346;2022-11-21T01:57:05;20.48;;;3.92;;
25913;SDS011;13718;50.922;5.346;2022-11-21T01:59:43;18.08;;;3.78;;
25913;SDS011;13718;50.922;5.346;2022-11-21T02:02:09;17.75;;;3.97;;
25913;SDS011;13718;50.922;5.346;2022-11-21T02:04:37;17.30;;;4.57;;
25913;SDS011;13718;50.922;5.346;2022-11-21T02:07:05;31.02;;;4.53;;
25913;SDS011;13718;50.922;5.346;2022-11-21T02:09:32;21.58;;;4.40;;
25913;SDS011;13718;50.922;5.346;2022-11-21T02:12:01;26.60;;;5.30;;
25913;SDS011;13718;50.922;5.346;2022-11-21T02:14:48;14.32;;;4.78;;
25913;SDS011;13718;50.922;5.346;2022-11-21T02:17:17;21.55;;;4.78;;
25913;SDS011;13718;50.922;5.346;2022-11-21T02:19:44;19.88;;;4.50;;
25913;SDS011;13718;50.922;5.346;2022-11-21T02:22:47;19.60;;;5.22;;
25913;SDS011;13718;50.922;5.346;2022-11-21T02:25:27;22.63;;;5.22;;
25913;SDS011;13718;50.922;5.346;2022-11-21T02:28:00;25.75;;;5.55;;
25913;SDS011;13718;50.922;5.346;2022-11-21T02:30:28;28.50;;;4.93;;
25913;SDS011;13718;50.922;5.346;2022-11-21T02:32:55;23.02;;;5.55;;
25913;SDS011;13718;50.922;5.346;2022-11-21T02:35:21;21.08;;;4.80;;
25913;SDS011;13718;50.922;5.346;2022-11-21T02:37:51;30.40;;;5.25;;
25913;SDS011;13718;50.922;5.346;2022-11-21T02:40:22;22.58;;;5.43;;
25913;SDS011;13718;50.922;5.346;2022-11-21T02:43:02;25.70;;;5.85;;
25913;SDS011;13718;50.922;5.346;2022-11-21T02:45:36;18.85;;;5.25;;
25913;SDS011;13718;50.922;5.346;2022-11-21T02:48:05;27.00;;;5.05;;
25913;SDS011;13718;50.922;5.346;2022-11-21T02:50:32;18.25;;;5.25;;
25913;SDS011;13718;50.922;5.346;2022-11-21T02:52:58;22.30;;;5.90;;
25913;SDS011;13718;50.922;5.346;2022-11-21T02:55:25;20.45;;;5.15;;
25913;SDS011;13718;50.922;5.346;2022-11-21T02:57:50;23.27;;;5.82;;
25913;SDS011;13718;50.922;5.346;2022-11-21T03:00:16;22.52;;;5.05;;
25913;SDS011;13718;50.922;5.346;2022-11-21T03:02:42;18.23;;;5.55;;
25913;SDS011;13718;50.922;5.346;2022-11-21T03:05:09;24.63;;;5.15;;
25913;SDS011;13718;50.922;5.346;2022-11-21T03:07:36;27.63;;;5.13;;
25913;SDS011;13718;50.922;5.346;2022-11-21T03:10:02;27.48;;;5.60;;
25913;SDS011;13718;50.922;5.346;2022-11-21T03:12:28;21.73;;;5.38;;
25913;SDS011;13718;50.922;5.346;2022-11-21T03:14:54;26.65;;;5.18;;
25913;SDS011;13718;50.922;5.346;2022-11-21T03:17:20;21.75;;;5.05;;
25913;SDS011;13718;50.922;5.346;2022-11-21T03:19:45;15.85;;;4.80;;
25913;SDS011;13718;50.922;5.346;2022-11-21T03:22:11;18.75;;;4.90;;
25913;SDS011;13718;50.922;5.346;2022-11-21T03:24:38;23.33;;;4.68;;
25913;SDS011;13718;50.922;5.346;2022-11-21T03:27:03;25.45;;;4.63;;
25913;SDS011;13718;50.922;5.346;2022-11-21T03:29:29;21.73;;;4.65;;
25913;SDS011;13718;50.922;5.346;2022-11-21T03:31:55;20.55;;;4.65;;
25913;SDS011;13718;50.922;5.346;2022-11-21T03:34:20;13.45;;;4.25;;
25913;SDS011;13718;50.922;5.346;2022-11-21T03:36:46;21.80;;;4.93;;
25913;SDS011;13718;50.922;5.346;2022-11-21T03:39:12;19.63;;;4.53;;
25913;SDS011;13718;50.922;5.346;2022-11-21T03:41:37;22.77;;;4.38;;
25913;SDS011;13718;50.922;5.346;2022-11-21T03:44:04;13.00;;;4.05;;
25913;SDS011;13718;50.922;5.346;2022-11-21T03:46:32;21.38;;;4.60;;
25913;SDS011;13718;50.922;5.346;2022-11-21T03:48:59;19.52;;;4.55;;
25913;SDS011;13718;50.922;5.346;2022-11-21T03:51:25;20.40;;;4.63;;
25913;SDS011;13718;50.922;5.346;2022-11-21T03:53:51;17.50;;;4.40;;
25913;SDS011;13718;50.922;5.346;2022-11-21T03:56:17;18.02;;;4.60;;
25913;SDS011;13718;50.922;5.346;2022-11-21T03:58:43;15.55;;;4.18;;
25913;SDS011;13718;50.922;5.346;2022-11-21T04:01:08;14.15;;;4.50;;
25913;SDS011;13718;50.922;5.346;2022-11-21T04:03:34;14.82;;;4.53;;
25913;SDS011;13718;50.922;5.346;2022-11-21T04:06:00;16.23;;;4.20;;
25913;SDS011;13718;50.922;5.346;2022-11-21T04:08:26;18.77;;;3.85;;
25913;SDS011;13718;50.922;5.346;2022-11-21T04:10:52;16.58;;;3.90;;
25913;SDS011;13718;50.922;5.346;2022-11-21T04:13:18;23.52;;;4.43;;
25913;SDS011;13718;50.922;5.346;2022-11-21T04:15:44;27.30;;;5.13;;
25913;SDS011;13718;50.922;5.346;2022-11-21T04:18:10;26.15;;;3.95;;
25913;SDS011;13718;50.922;5.346;2022-11-21T04:20:36;22.10;;;4.53;;
25913;SDS011;13718;50.922;5.346;2022-11-21T04:23:06;17.88;;;4.35;;
25913;SDS011;13718;50.922;5.346;2022-11-21T04:25:31;19.52;;;4.38;;
25913;SDS011;13718;50.922;5.346;2022-11-21T04:27:58;20.17;;;4.45;;
25913;SDS011;13718;50.922;5.346;2022-11-21T04:30:25;14.10;;;3.85;;
25913;SDS011;13718;50.922;5.346;2022-11-21T04:32:51;19.27;;;3.88;;
25913;SDS011;13718;50.922;5.346;2022-11-21T04:35:17;18.17;;;4.63;;
25913;SDS011;13718;50.922;5.346;2022-11-21T04:37:43;25.65;;;4.85;;
25913;SDS011;13718;50.922;5.346;2022-11-21T04:40:09;15.50;;;5.30;;
25913;SDS011;13718;50.922;5.346;2022-11-21T04:42:35;20.13;;;4.53;;
25913;SDS011;13718;50.922;5.346;2022-11-21T04:45:01;21.02;;;5.57;;
25913;SDS011;13718;50.922;5.346;2022-11-21T04:47:27;22.95;;;5.00;;
25913;SDS011;13718;50.922;5.346;2022-11-21T04:49:52;25.67;;;4.75;;
25913;SDS011;13718;50.922;5.346;2022-11-21T04:52:18;19.38;;;4.47;;
25913;SDS011;13718;50.922;5.346;2022-11-21T04:54:43;17.70;;;4.10;;
25913;SDS011;13718;50.922;5.346;2022-11-21T04:57:09;17.88;;;4.97;;
25913;SDS011;13718;50.922;5.346;2022-11-21T04:59:35;24.38;;;4.15;;
25913;SDS011;13718;50.922;5.346;2022-11-21T05:02:01;15.88;;;3.88;;
25913;SDS011;13718;50.922;5.346;2022-11-21T05:04:27;20.90;;;4.60;;
25913;SDS011;13718;50.922;5.346;2022-11-21T05:06:53;12.57;;;4.03;;
25913;SDS011;13718;50.922;5.346;2022-11-21T05:09:18;17.88;;;4.00;;
25913;SDS011;13718;50.922;5.346;2022-11-21T05:11:44;20.85;;;4.63;;
25913;SDS011;13718;50.922;5.346;2022-11-21T05:14:28;21.65;;;4.07;;
25913;SDS011;13718;50.922;5.346;2022-11-21T05:16:54;18.80;;;4.60;;
25913;SDS011;13718;50.922;5.346;2022-11-21T05:19:19;17.13;;;4.32;;
25913;SDS011;13718;50.922;5.346;2022-11-21T05:21:45;24.23;;;5.22;;
25913;SDS011;13718;50.922;5.346;2022-11-21T05:24:10;23.75;;;4.60;;
25913;SDS011;13718;50.922;5.346;2022-11-21T05:26:36;22.15;;;4.70;;
25913;SDS011;13718;50.922;5.346;2022-11-21T05:29:02;21.67;;;4.53;;
25913;SDS011;13718;50.922;5.346;2022-11-21T05:31:28;18.70;;;4.82;;
25913;SDS011;13718;50.922;5.346;2022-11-21T05:33:54;22.67;;;4.95;;
25913;SDS011;13718;50.922;5.346;2022-11-21T05:36:20;29.58;;;5.35;;
25913;SDS011;13718;50.922;5.346;2022-11-21T05:38:45;28.17;;;5.45;;
25913;SDS011;13718;50.922;5.346;2022-11-21T05:41:11;24.77;;;5.57;;
25913;SDS011;13718;50.922;5.346;2022-11-21T05:43:36;21.23;;;5.65;;
25913;SDS011;13718;50.922;5.346;2022-11-21T05:46:12;21.30;;;4.93;;
25913;SDS011;13718;50.922;5.346;2022-11-21T05:48:39;20.55;;;5.80;;
25913;SDS011;13718;50.922;5.346;2022-11-21T05:51:04;23.75;;;5.68;;
25913;SDS011;13718;50.922;5.346;2022-11-21T05:53:30;23.00;;;5.25;;
25913;SDS011;13718;50.922;5.346;2022-11-21T05:56:00;17.27;;;5.15;;
25913;SDS011;13718;50.922;5.346;2022-11-21T05:58:30;31.45;;;5.95;;
25913;SDS011;13718;50.922;5.346;2022-11-21T06:00:56;26.92;;;5.70;;
25913;SDS011;13718;50.922;5.346;2022-11-21T06:03:22;17.42;;;5.30;;
25913;SDS011;13718;50.922;5.346;2022-11-21T06:05:51;24.35;;;6.25;;
25913;SDS011;13718;50.922;5.346;2022-11-21T06:08:32;24.52;;;6.95;;
25913;SDS011;13718;50.922;5.346;2022-11-21T06:11:02;22.40;;;7.13;;
25913;SDS011;13718;50.922;5.346;2022-11-21T06:13:28;21.55;;;6.07;;
25913;SDS011;13718;50.922;5.346;2022-11-21T06:18:34;24.63;;;6.32;;
25913;SDS011;13718;50.922;5.346;2022-11-21T06:21:35;27.42;;;6.20;;
25913;SDS011;13718;50.922;5.346;2022-11-21T06:23:54;34.75;;;6.45;;
25913;SDS011;13718;50.922;5.346;2022-11-21T06:26:22;24.05;;;6.65;;
25913;SDS011;13718;50.922;5.346;2022-11-21T06:28:49;28.92;;;6.22;;
25913;SDS011;13718;50.922;5.346;2022-11-21T06:31:16;34.38;;;6.80;;
25913;SDS011;13718;50.922;5.346;2022-11-21T06:33:43;22.15;;;5.55;;
25913;SDS011;13718;50.922;5.346;2022-11-21T06:36:10;24.73;;;6.13;;
25913;SDS011;13718;50.922;5.346;2022-11-21T06:38:38;34.28;;;6.60;;
25913;SDS011;13718;50.922;5.346;2022-11-21T06:41:10;36.80;;;6.72;;
25913;SDS011;13718;50.922;5.346;2022-11-21T06:43:37;24.52;;;5.57;;
25913;SDS011;13718;50.922;5.346;2022-11-21T06:46:03;24.52;;;4.85;;
25913;SDS011;13718;50.922;5.346;2022-11-21T06:48:31;31.95;;;5.13;;
25913;SDS011;13718;50.922;5.346;2022-11-21T06:51:19;28.98;;;6.28;;
25913;SDS011;13718;50.922;5.346;2022-11-21T06:53:51;35.10;;;6.28;;
25913;SDS011;13718;50.922;5.346;2022-11-21T06:56:21;34.83;;;6.25;;
25913;SDS011;13718;50.922;5.346;2022-11-21T06:58:51;28.67;;;6.18;;
25913;SDS011;13718;50.922;5.346;2022-11-21T07:01:16;28.95;;;5.82;;
25913;SDS011;13718;50.922;5.346;2022-11-21T07:03:42;33.15;;;5.72;;
25913;SDS011;13718;50.922;5.346;2022-11-21T07:06:08;34.15;;;5.82;;
25913;SDS011;13718;50.922;5.346;2022-11-21T07:08:34;31.60;;;5.20;;
25913;SDS011;13718;50.922;5.346;2022-11-21T07:11:01;31.88;;;5.18;;
25913;SDS011;13718;50.922;5.346;2022-11-21T07:13:28;41.85;;;5.60;;
25913;SDS011;13718;50.922;5.346;2022-11-21T07:15:55;35.28;;;5.25;;
25913;SDS011;13718;50.922;5.346;2022-11-21T07:18:25;25.73;;;5.38;;
25913;SDS011;13718;50.922;5.346;2022-11-21T07:20:51;36.05;;;5.80;;
25913;SDS011;13718;50.922;5.346;2022-11-21T07:23:21;37.60;;;5.82;;
25913;SDS011;13718;50.922;5.346;2022-11-21T07:25:46;39.90;;;5.43;;
25913;SDS011;13718;50.922;5.346;2022-11-21T07:28:12;32.50;;;5.78;;
25913;SDS011;13718;50.922;5.346;2022-11-21T07:30:37;34.88;;;5.68;;
25913;SDS011;13718;50.922;5.346;2022-11-21T07:33:04;34.35;;;5.13;;
25913;SDS011;13718;50.922;5.346;2022-11-21T07:35:31;33.03;;;5.18;;
25913;SDS011;13718;50.922;5.346;2022-11-21T07:37:58;44.92;;;6.05;;
25913;SDS011;13718;50.922;5.346;2022-11-21T07:40:24;36.28;;;5.70;;
25913;SDS011;13718;50.922;5.346;2022-11-21T07:42:50;45.78;;;5.60;;
25913;SDS011;13718;50.922;5.346;2022-11-21T07:45:15;36.63;;;5.57;;
25913;SDS011;13718;50.922;5.346;2022-11-21T07:47:41;40.65;;;5.72;;
25913;SDS011;13718;50.922;5.346;2022-11-21T07:50:08;43.05;;;4.97;;
25913;SDS011;13718;50.922;5.346;2022-11-21T07:52:35;44.33;;;5.43;;
25913;SDS011;13718;50.922;5.346;2022-11-21T07:55:01;32.70;;;5.50;;
25913;SDS011;13718;50.922;5.346;2022-11-21T07:57:27;36.10;;;6.22;;
25913;SDS011;13718;50.922;5.346;2022-11-21T07:59:54;42.55;;;5.75;;
25913;SDS011;13718;50.922;5.346;2022-11-21T08:02:20;34.65;;;5.15;;
25913;SDS011;13718;50.922;5.346;2022-11-21T08:04:47;38.58;;;5.63;;
25913;SDS011;13718;50.922;5.346;2022-11-21T08:07:14;32.80;;;4.60;;
25913;SDS011;13718;50.922;5.346;2022-11-21T08:09:40;41.05;;;5.57;;
25913;SDS011;13718;50.922;5.346;2022-11-21T08:12:06;27.67;;;5.18;;
25913;SDS011;13718;50.922;5.346;2022-11-21T08:14:32;28.48;;;4.47;;
25913;SDS011;13718;50.922;5.346;2022-11-21T08:16:58;27.13;;;4.88;;
25913;SDS011;13718;50.922;5.346;2022-11-21T08:19:24;25.17;;;4.25;;
25913;SDS011;13718;50.922;5.346;2022-11-21T08:21:49;20.20;;;4.43;;
25913;SDS011;13718;50.922;5.346;2022-11-21T08:24:15;31.38;;;4.40;;
25913;SDS011;13718;50.922;5.346;2022-11-21T08:26:42;22.40;;;4.05;;
25913;SDS011;13718;50.922;5.346;2022-11-21T08:29:09;25.67;;;4.25;;
25913;SDS011;13718;50.922;5.346;2022-11-21T08:31:36;24.20;;;3.58;;
25913;SDS011;13718;50.922;5.346;2022-11-21T08:34:02;22.95;;;4.38;;
25913;SDS011;13718;50.922;5.346;2022-11-21T08:36:28;17.98;;;4.03;;
25913;SDS011;13718;50.922;5.346;2022-11-21T08:38:53;13.82;;;3.70;;
25913;SDS011;13718;50.922;5.346;2022-11-21T08:41:19;24.17;;;4.38;;
25913;SDS011;13718;50.922;5.346;2022-11-21T08:44:04;15.90;;;4.15;;
25913;SDS011;13718;50.922;5.346;2022-11-21T08:46:30;25.23;;;5.07;;
25913;SDS011;13718;50.922;5.346;2022-11-21T08:48:57;23.90;;;4.95;;
25913;SDS011;13718;50.922;5.346;2022-11-21T08:51:23;25.27;;;5.55;;
25913;SDS011;13718;50.922;5.346;2022-11-21T08:53:49;25.63;;;6.00;;
25913;SDS011;13718;50.922;5.346;2022-11-21T08:56:15;26.27;;;6.80;;
25913;SDS011;13718;50.922;5.346;2022-11-21T08:58:40;23.83;;;6.20;;
25913;SDS011;13718;50.922;5.346;2022-11-21T09:01:06;31.90;;;6.78;;
25913;SDS011;13718;50.922;5.346;2022-11-21T09:03:31;25.17;;;6.85;;
25913;SDS011;13718;50.922;5.346;2022-11-21T09:05:58;22.83;;;6.47;;
25913;SDS011;13718;50.922;5.346;2022-11-21T09:08:24;18.15;;;6.57;;
25913;SDS011;13718;50.922;5.346;2022-11-21T09:10:50;23.48;;;6.32;;
25913;SDS011;13718;50.922;5.346;2022-11-21T09:13:16;23.15;;;6.10;;
25913;SDS011;13718;50.922;5.346;2022-11-21T09:15:41;22.05;;;5.20;;
25913;SDS011;13718;50.922;5.346;2022-11-21T09:18:26;21.45;;;5.07;;
25913;SDS011;13718;50.922;5.346;2022-11-21T09:20:51;30.50;;;5.68;;
25913;SDS011;13718;50.922;5.346;2022-11-21T09:23:17;19.92;;;4.55;;
25913;SDS011;13718;50.922;5.346;2022-11-21T09:25:43;22.58;;;4.97;;
25913;SDS011;13718;50.922;5.346;2022-11-21T09:28:09;14.18;;;4.43;;
25913;SDS011;13718;50.922;5.346;2022-11-21T09:30:36;23.60;;;5.28;;
25913;SDS011;13718;50.922;5.346;2022-11-21T09:33:05;16.85;;;4.28;;
25913;SDS011;13718;50.922;5.346;2022-11-21T09:35:33;22.85;;;5.25;;
25913;SDS011;13718;50.922;5.346;2022-11-21T09:37:59;18.15;;;4.55;;
25913;SDS011;13718;50.922;5.346;2022-11-21T09:40:25;12.10;;;3.28;;
25913;SDS011;13718;50.922;5.346;2022-11-21T09:42:54;20.45;;;3.47;;
25913;SDS011;13718;50.922;5.346;2022-11-21T09:48:00;19.88;;;3.45;;
25913;SDS011;13718;50.922;5.346;2022-11-21T09:50:35;21.65;;;3.35;;
25913;SDS011;13718;50.922;5.346;2022-11-21T09:58:25;18.40;;;5.85;;
25913;SDS011;13718;50.922;5.346;2022-11-21T10:00:56;18.25;;;3.80;;
25913;SDS011;13718;50.922;5.346;2022-11-21T10:03:24;18.15;;;3.85;;
25913;SDS011;13718;50.922;5.346;2022-11-21T10:05:54;15.83;;;3.30;;
25913;SDS011;13718;50.922;5.346;2022-11-21T10:08:43;21.90;;;4.00;;
25913;SDS011;13718;50.922;5.346;2022-11-21T10:14:06;18.90;;;4.10;;
25913;SDS011;13718;50.922;5.346;2022-11-21T10:17:14;18.65;;;4.05;;
25913;SDS011;13718;50.922;5.346;2022-11-21T10:22:33;23.67;;;5.18;;
25913;SDS011;13718;50.922;5.346;2022-11-21T10:30:41;23.88;;;6.03;;
25913;SDS011;13718;50.922;5.346;2022-11-21T10:33:15;25.10;;;6.28;;
25913;SDS011;13718;50.922;5.346;2022-11-21T10:35:51;25.45;;;6.82;;
25913;SDS011;13718;50.922;5.346;2022-11-21T10:38:20;21.90;;;6.78;;
25913;SDS011;13718;50.922;5.346;2022-11-21T10:40:51;23.20;;;7.18;;
25913;SDS011;13718;50.922;5.346;2022-11-21T10:46:06;27.15;;;7.65;;
25913;SDS011;13718;50.922;5.346;2022-11-21T10:48:32;26.60;;;8.07;;
25913;SDS011;13718;50.922;5.346;2022-11-21T10:53:42;19.48;;;6.93;;
25913;SDS011;13718;50.922;5.346;2022-11-21T10:56:26;26.08;;;7.32;;
25913;SDS011;13718;50.922;5.346;2022-11-21T10:58:54;23.65;;;7.85;;
25913;SDS011;13718;50.922;5.346;2022-11-21T11:01:31;26.17;;;7.40;;
25913;SDS011;13718;50.922;5.346;2022-11-21T11:06:38;20.10;;;6.28;;
25913;SDS011;13718;50.922;5.346;2022-11-21T11:09:05;26.70;;;7.38;;
25913;SDS011;13718;50.922;5.346;2022-11-21T11:11:31;22.73;;;7.07;;
25913;SDS011;13718;50.922;5.346;2022-11-21T11:14:01;17.30;;;5.10;;
25913;SDS011;13718;50.922;5.346;2022-11-21T11:24:26;16.95;;;4.93;;
25913;SDS011;13718;50.922;5.346;2022-11-21T11:26:55;17.60;;;5.30;;
25913;SDS011;13718;50.922;5.346;2022-11-21T11:29:22;17.02;;;4.28;;
25913;SDS011;13718;50.922;5.346;2022-11-21T11:34:37;12.20;;;3.67;;
25913;SDS011;13718;50.922;5.346;2022-11-21T11:39:44;8.18;;;3.25;;
25913;SDS011;13718;50.922;5.346;2022-11-21T11:48:52;12.00;;;3.30;;
25913;SDS011;13718;50.922;5.346;2022-11-21T11:51:46;11.80;;;3.25;;
25913;SDS011;13718;50.922;5.346;2022-11-21T11:54:17;12.32;;;2.75;;
25913;SDS011;13718;50.922;5.346;2022-11-21T11:56:49;14.38;;;3.00;;
25913;SDS011;13718;50.922;5.346;2022-11-21T11:59:16;7.75;;;2.60;;
25913;SDS011;13718;50.922;5.346;2022-11-21T12:02:16;14.82;;;2.80;;
25913;SDS011;13718;50.922;5.346;2022-11-21T12:04:50;12.10;;;2.78;;
25913;SDS011;13718;50.922;5.346;2022-11-21T12:07:34;10.50;;;2.83;;
25913;SDS011;13718;50.922;5.346;2022-11-21T12:12:51;11.15;;;3.05;;
25913;SDS011;13718;50.922;5.346;2022-11-21T12:15:29;11.77;;;2.50;;
25913;SDS011;13718;50.922;5.346;2022-11-21T12:20:49;15.02;;;2.75;;
25913;SDS011;13718;50.922;5.346;2022-11-21T12:23:27;17.75;;;2.83;;
25913;SDS011;13718;50.922;5.346;2022-11-21T12:26:11;9.18;;;2.50;;
25913;SDS011;13718;50.922;5.346;2022-11-21T12:31:26;10.52;;;1.98;;
25913;SDS011;13718;50.922;5.346;2022-11-21T12:42:31;13.23;;;2.55;;
25913;SDS011;13718;50.922;5.346;2022-11-21T12:45:31;13.13;;;2.50;;
25913;SDS011;13718;50.922;5.346;2022-11-21T12:48:15;8.38;;;2.42;;
25913;SDS011;13718;50.922;5.346;2022-11-21T12:54:03;14.25;;;2.67;;
25913;SDS011;13718;50.922;5.346;2022-11-21T12:56:58;12.00;;;2.20;;
25913;SDS011;13718;50.922;5.346;2022-11-21T13:04:53;13.38;;;2.50;;
25913;SDS011;13718;50.922;5.346;2022-11-21T13:07:21;12.77;;;2.30;;
25913;SDS011;13718;50.922;5.346;2022-11-21T13:09:49;12.57;;;2.58;;
25913;SDS011;13718;50.922;5.346;2022-11-21T13:12:25;10.95;;;2.13;;
25913;SDS011;13718;50.922;5.346;2022-11-21T13:15:16;11.90;;;2.45;;
25913;SDS011;13718;50.922;5.346;2022-11-21T13:17:57;12.07;;;2.45;;
25913;SDS011;13718;50.922;5.346;2022-11-21T13:20:49;13.32;;;2.92;;
25913;SDS011;13718;50.922;5.346;2022-11-21T13:26:00;12.05;;;2.95;;
25913;SDS011;13718;50.922;5.346;2022-11-21T13:28:30;13.98;;;2.28;;
25913;SDS011;13718;50.922;5.346;2022-11-21T13:30:58;15.90;;;3.85;;
25913;SDS011;13718;50.922;5.346;2022-11-21T13:36:12;11.85;;;3.67;;
25913;SDS011;13718;50.922;5.346;2022-11-21T13:53:02;19.10;;;4.32;;
25913;SDS011;13718;50.922;5.346;2022-11-21T13:56:01;19.85;;;4.32;;
25913;SDS011;13718;50.922;5.346;2022-11-21T14:01:42;16.98;;;3.03;;
25913;SDS011;13718;50.922;5.346;2022-11-21T14:07:28;21.73;;;2.85;;
25913;SDS011;13718;50.922;5.346;2022-11-21T14:09:59;12.55;;;2.40;;
25913;SDS011;13718;50.922;5.346;2022-11-21T14:17:45;14.57;;;2.88;;
25913;SDS011;13718;50.922;5.346;2022-11-21T14:23:02;15.57;;;2.50;;
25913;SDS011;13718;50.922;5.346;2022-11-21T14:28:05;11.07;;;2.88;;
25913;SDS011;13718;50.922;5.346;2022-11-21T14:30:39;15.43;;;2.58;;
25913;SDS011;13718;50.922;5.346;2022-11-21T14:38:28;19.85;;;3.33;;
25913;SDS011;13718;50.922;5.346;2022-11-21T14:43:47;23.90;;;3.35;;
25913;SDS011;13718;50.922;5.346;2022-11-21T14:46:18;19.30;;;3.95;;
25913;SDS011;13718;50.922;5.346;2022-11-21T14:51:10;16.42;;;3.20;;
25913;SDS011;13718;50.922;5.346;2022-11-21T14:53:40;19.38;;;3.30;;
25913;SDS011;13718;50.922;5.346;2022-11-21T14:56:29;17.52;;;2.80;;
25913;SDS011;13718;50.922;5.346;2022-11-21T14:58:55;16.65;;;2.97;;
25913;SDS011;13718;50.922;5.346;2022-11-21T15:01:23;15.27;;;2.40;;
25913;SDS011;13718;50.922;5.346;2022-11-21T15:06:30;14.65;;;2.60;;
25913;SDS011;13718;50.922;5.346;2022-11-21T15:09:05;11.65;;;2.55;;
25913;SDS011;13718;50.922;5.346;2022-11-21T15:11:37;12.80;;;2.83;;
25913;SDS011;13718;50.922;5.346;2022-11-21T15:16:57;10.27;;;2.67;;
25913;SDS011;13718;50.922;5.346;2022-11-21T15:19:25;8.38;;;2.20;;
25913;SDS011;13718;50.922;5.346;2022-11-21T15:21:55;11.10;;;2.50;;
25913;SDS011;13718;50.922;5.346;2022-11-21T15:24:32;12.27;;;2.77;;
25913;SDS011;13718;50.922;5.346;2022-11-21T15:27:23;12.23;;;2.50;;
25913;SDS011;13718;50.922;5.346;2022-11-21T15:30:05;9.15;;;2.15;;
25913;SDS011;13718;50.922;5.346;2022-11-21T15:35:43;13.65;;;2.50;;
25913;SDS011;13718;50.922;5.346;2022-11-21T15:40:57;12.60;;;3.08;;
25913;SDS011;13718;50.922;5.346;2022-11-21T15:44:13;9.23;;;2.25;;
25913;SDS011;13718;50.922;5.346;2022-11-21T15:46:25;12.23;;;2.22;;
25913;SDS011;13718;50.922;5.346;2022-11-21T15:51:25;11.02;;;2.15;;
25913;SDS011;13718;50.922;5.346;2022-11-21T15:53:59;11.90;;;2.30;;
25913;SDS011;13718;50.922;5.346;2022-11-21T15:56:25;10.95;;;2.20;;
25913;SDS011;13718;50.922;5.346;2022-11-21T15:58:51;10.98;;;2.47;;
25913;SDS011;13718;50.922;5.346;2022-11-21T16:01:17;11.35;;;2.05;;
25913;SDS011;13718;50.922;5.346;2022-11-21T16:03:45;7.55;;;2.05;;
25913;SDS011;13718;50.922;5.346;2022-11-21T16:06:13;12.90;;;2.15;;
25913;SDS011;13718;50.922;5.346;2022-11-21T16:08:39;9.23;;;2.03;;
25913;SDS011;13718;50.922;5.346;2022-11-21T16:11:05;14.75;;;2.95;;
25913;SDS011;13718;50.922;5.346;2022-11-21T16:13:31;9.55;;;3.00;;
25913;SDS011;13718;50.922;5.346;2022-11-21T16:16:01;16.30;;;3.70;;
25913;SDS011;13718;50.922;5.346;2022-11-21T16:18:26;9.57;;;3.30;;
25913;SDS011;13718;50.922;5.346;2022-11-21T16:21:02;13.18;;;2.78;;
25913;SDS011;13718;50.922;5.346;2022-11-21T16:23:29;12.48;;;2.55;;
25913;SDS011;13718;50.922;5.346;2022-11-21T16:25:54;16.60;;;3.63;;
25913;SDS011;13718;50.922;5.346;2022-11-21T16:28:20;10.98;;;2.50;;
25913;SDS011;13718;50.922;5.346;2022-11-21T16:30:46;15.45;;;2.90;;
25913;SDS011;13718;50.922;5.346;2022-11-21T16:33:11;15.88;;;2.97;;
25913;SDS011;13718;50.922;5.346;2022-11-21T16:35:37;11.88;;;3.50;;
25913;SDS011;13718;50.922;5.346;2022-11-21T16:38:12;9.48;;;3.08;;
25913;SDS011;13718;50.922;5.346;2022-11-21T16:40:37;15.15;;;3.85;;
25913;SDS011;13718;50.922;5.346;2022-11-21T16:43:07;16.67;;;3.60;;
25913;SDS011;13718;50.922;5.346;2022-11-21T16:45:36;12.45;;;3.38;;
25913;SDS011;13718;50.922;5.346;2022-11-21T16:48:03;21.33;;;3.70;;
25913;SDS011;13718;50.922;5.346;2022-11-21T16:50:30;16.92;;;4.07;;
25913;SDS011;13718;50.922;5.346;2022-11-21T16:52:56;15.43;;;3.80;;
25913;SDS011;13718;50.922;5.346;2022-11-21T16:55:21;9.50;;;3.15;;
25913;SDS011;13718;50.922;5.346;2022-11-21T16:57:47;10.18;;;2.58;;
25913;SDS011;13718;50.922;5.346;2022-11-21T17:00:13;12.55;;;2.50;;
25913;SDS011;13718;50.922;5.346;2022-11-21T17:02:39;19.67;;;3.08;;
25913;SDS011;13718;50.922;5.346;2022-11-21T17:05:05;16.98;;;3.22;;
25913;SDS011;13718;50.922;5.346;2022-11-21T17:07:31;11.25;;;2.65;;
25913;SDS011;13718;50.922;5.346;2022-11-21T17:09:57;11.43;;;2.50;;